Time;durP1;ratioP1;P1;durP2;ratioP2;P2;SDS_P1;SDS_P2;PMS_P1;PMS_P2;Temp;Humidity;BMP_temperature;BMP_pressure;BME280_temperature;BME280_humidity;BME280_pressure;Samples;Min_cycle;Max_cycle;Signal;HPM_P1;HPM_P2
2022/09/23 08:01:54;;;;;;;9.25;6.55;;;;;;;12.80;71.73;101429.84;5301599;27;20404;-66
2022/09/23 08:04:28;;;;;;;7.95;6.30;;;;;;;13.01;74.06;101430.50;5300183;28;20108;-67
2022/09/23 08:07:02;;;;;;;9.50;7.50;;;;;;;12.99;72.81;101432.78;5287428;28;20031;-67
2022/09/23 08:09:40;;;;;;;8.45;6.90;;;;;;;13.10;73.51;101428.78;5297015;28;20051;-68
2022/09/23 08:12:14;;;;;;;9.63;7.35;;;;;;;13.02;71.67;101438.59;5299921;28;20024;-69
2022/09/23 08:14:46;;;;;;;14.68;7.95;;;;;;;13.07;71.44;101434.09;5301016;28;20025;-71
2022/09/23 08:17:17;;;;;;;9.85;7.05;;;;;;;13.14;71.48;101431.78;5300656;28;20034;-70
2022/09/23 08:19:49;;;;;;;9.27;6.32;;;;;;;13.33;72.99;101432.75;5286611;28;20031;-68
2022/09/23 08:22:20;;;;;;;9.88;7.13;;;;;;;13.17;71.03;101436.78;5299273;28;20052;-68
2022/09/23 08:24:51;;;;;;;9.45;6.63;;;;;;;13.22;71.30;101432.00;5299974;28;20021;-67
2022/09/23 08:27:23;;;;;;;7.75;6.40;;;;;;;13.31;70.83;101429.44;5300047;28;20028;-67
2022/09/23 08:29:54;;;;;;;9.68;6.90;;;;;;;13.36;71.35;101437.72;5299578;28;20033;-68
2022/09/23 08:32:25;;;;;;;10.55;6.70;;;;;;;13.63;72.60;101437.19;5300189;28;20446;-66
2022/09/23 08:34:56;;;;;;;7.45;6.20;;;;;;;13.48;70.64;101427.03;5312252;28;20486;-67
2022/09/23 08:37:28;;;;;;;7.75;6.65;;;;;;;13.54;70.16;101432.53;5308193;28;20328;-67
2022/09/23 08:39:59;;;;;;;8.23;5.78;;;;;;;13.71;71.33;101432.91;5298801;28;20075;-66
2022/09/23 08:42:33;;;;;;;11.13;7.18;;;;;;;13.68;70.45;101439.91;5300212;28;20020;-67
2022/09/23 08:45:11;;;;;;;9.98;6.00;;;;;;;13.97;71.64;101438.19;5300067;28;20115;-67
2022/09/23 08:47:46;;;;;;;8.82;6.53;;;;;;;13.86;70.80;101438.31;5299802;28;20051;-67
2022/09/23 08:50:19;;;;;;;9.82;6.00;;;;;;;13.76;69.43;101430.06;5300193;28;20037;-66
2022/09/23 08:53:03;;;;;;;10.18;6.45;;;;;;;14.02;70.49;101426.97;5301779;28;20032;-66
2022/09/23 08:55:41;;;;;;;9.75;6.50;;;;;;;13.96;70.09;101437.34;5296113;28;20065;-68
2022/09/23 08:58:36;;;;;;;7.15;6.35;;;;;;;14.04;70.40;101435.84;5299858;28;20107;-66
2022/09/23 09:01:40;;;;;;;11.95;6.45;;;;;;;14.09;70.34;101427.44;5298478;28;20037;-67
2022/09/23 09:04:21;;;;;;;9.95;6.18;;;;;;;14.15;70.28;101426.22;5273010;28;20124;-67
2022/09/23 09:07:13;;;;;;;9.77;5.35;;;;;;;14.31;70.00;101432.41;5290722;28;20016;-67
2022/09/23 09:09:50;;;;;;;9.75;6.18;;;;;;;14.22;69.36;101423.91;5299236;28;20483;-68
2022/09/23 09:12:31;;;;;;;7.85;5.88;;;;;;;14.47;70.40;101419.91;5291416;28;20029;-66
2022/09/23 09:15:13;;;;;;;8.73;5.72;;;;;;;14.36;68.54;101413.63;5285670;28;20029;-66
2022/09/23 09:18:01;;;;;;;11.48;7.22;;;;;;;14.48;69.51;101418.78;5285954;28;20340;-66
2022/09/23 09:21:08;;;;;;;6.63;5.78;;;;;;;14.53;67.47;101417.91;5286113;28;20036;-67
2022/09/23 09:23:58;;;;;;;6.80;5.15;;;;;;;14.64;66.95;101421.34;5284848;28;20107;-66
2022/09/23 09:26:34;;;;;;;7.30;5.88;;;;;;;14.57;65.41;101407.78;5284931;28;20467;-67
2022/09/23 09:29:17;;;;;;;7.05;5.32;;;;;;;14.62;65.91;101413.28;5285430;28;20148;-66
2022/09/23 09:31:49;;;;;;;13.40;6.20;;;;;;;14.78;66.75;101411.91;5285296;28;20043;-67
2022/09/23 09:34:53;;;;;;;11.32;6.85;;;;;;;14.78;65.22;101413.88;5285260;28;20024;-68
2022/09/23 09:37:34;;;;;;;8.60;5.95;;;;;;;14.84;64.96;101412.66;5284003;28;20033;-68
2022/09/23 09:40:11;;;;;;;8.77;5.47;;;;;;;14.93;63.96;101408.03;5285035;28;20082;-68
2022/09/23 09:42:47;;;;;;;7.38;5.00;;;;;;;15.05;63.75;101404.75;5284637;28;20028;-68
2022/09/23 09:45:25;;;;;;;5.93;4.88;;;;;;;15.08;63.69;101404.13;5284531;28;20070;-68
2022/09/23 09:48:22;;;;;;;8.32;4.55;;;;;;;15.12;63.96;101402.38;5283432;28;20024;-69
2022/09/23 09:50:54;;;;;;;8.93;5.18;;;;;;;15.22;63.21;101393.00;5279771;28;20020;-67
2022/09/23 09:53:29;;;;;;;5.50;4.70;;;;;;;15.24;61.84;101399.09;5284934;28;20024;-68
2022/09/23 09:56:09;;;;;;;8.23;4.40;;;;;;;15.33;61.35;101404.81;5285299;28;20029;-68
2022/09/23 09:58:48;;;;;;;8.95;5.35;;;;;;;15.34;61.49;101404.50;5284513;28;20033;-68
2022/09/23 10:01:21;;;;;;;5.15;4.32;;;;;;;15.44;60.33;101407.09;5284143;28;20450;-69
2022/09/23 10:03:54;;;;;;;4.65;3.97;;;;;;;15.44;60.29;101393.13;5285107;28;20036;-69
2022/09/23 10:06:31;;;;;;;5.20;3.60;;;;;;;15.68;63.71;101402.47;5283770;28;20025;-68
2022/09/23 10:09:12;;;;;;;6.20;4.25;;;;;;;15.57;62.75;101396.22;5279348;28;20491;-67
2022/09/23 10:12:03;;;;;;;7.45;4.93;;;;;;;15.72;65.46;101392.31;5275966;28;20028;-68
2022/09/23 10:14:35;;;;;;;6.70;3.92;;;;;;;15.79;64.63;101393.56;5276785;28;20065;-67
2022/09/23 10:17:12;;;;;;;6.22;4.53;;;;;;;15.66;61.07;101385.97;5276648;28;20790;-68
2022/09/23 10:19:48;;;;;;;5.22;4.40;;;;;;;15.72;61.06;101389.53;5275132;28;20159;-68
2022/09/23 10:22:25;;;;;;;5.53;4.43;;;;;;;15.76;60.90;101388.59;5276749;28;20054;-67
2022/09/23 10:25:02;;;;;;;8.25;5.00;;;;;;;15.84;61.75;101381.44;5276073;28;20069;-68
2022/09/23 10:27:35;;;;;;;8.07;4.35;;;;;;;16.01;62.63;101387.22;5276081;28;20111;-68
2022/09/23 10:30:22;;;;;;;6.18;4.40;;;;;;;15.92;60.97;101379.88;5276880;28;20051;-68
2022/09/23 10:32:55;;;;;;;8.60;4.97;;;;;;;15.99;61.28;101383.91;5276140;28;20115;-67
2022/09/23 10:35:27;;;;;;;5.50;4.13;;;;;;;16.05;61.70;101387.41;5275128;28;20032;-69
2022/09/23 10:38:00;;;;;;;6.63;4.82;;;;;;;16.11;61.37;101379.75;5275241;28;20399;-68
2022/09/23 10:47:13;;;;;;;12.80;6.22;;;;;;;16.16;59.00;101380.47;5274700;28;20063;-69
2022/09/23 10:49:51;;;;;;;6.68;4.65;;;;;;;16.24;59.83;101387.28;5273792;28;20036;-68
2022/09/23 10:52:34;;;;;;;8.98;6.32;;;;;;;16.22;59.52;101384.78;5276107;28;20047;-69
2022/09/23 10:55:17;;;;;;;8.13;5.35;;;;;;;16.30;59.61;101378.44;5272983;28;20033;-70
2022/09/23 10:58:30;;;;;;;5.50;4.03;;;;;;;16.41;60.93;101379.06;5274411;28;20593;-69
2022/09/23 11:01:28;;;;;;;5.75;4.28;;;;;;;16.30;58.38;101375.66;5261187;28;20047;-70
2022/09/23 11:04:15;;;;;;;5.97;3.95;;;;;;;16.36;58.06;101375.53;5245525;28;20044;-69
2022/09/23 11:07:24;;;;;;;4.35;3.78;;;;;;;16.35;58.79;101369.09;5276117;28;20032;-69
2022/09/23 11:10:27;;;;;;;7.40;5.28;;;;;;;16.42;59.11;101377.09;5274871;28;20029;-69
2022/09/23 11:13:38;;;;;;;6.97;5.00;;;;;;;16.45;59.48;101374.47;5266111;28;20123;-69
2022/09/23 11:16:29;;;;;;;7.55;4.15;;;;;;;16.48;59.41;101373.81;5274520;28;20044;-67
2022/09/23 11:19:15;;;;;;;6.22;4.43;;;;;;;16.58;59.30;101371.94;5275433;28;20033;-68
2022/09/23 11:22:07;;;;;;;8.27;4.68;;;;;;;16.63;59.25;101369.81;5274370;28;20048;-68
2022/09/23 11:25:17;;;;;;;6.43;3.90;;;;;;;16.66;58.11;101374.78;5273761;28;20155;-69
2022/09/23 11:28:07;;;;;;;8.48;4.20;;;;;;;16.65;57.53;101366.72;5260440;28;20044;-68
2022/09/23 11:31:20;;;;;;;7.20;4.38;;;;;;;16.69;57.89;101367.72;5274297;28;20124;-67
2022/09/23 11:34:16;;;;;;;7.35;4.85;;;;;;;16.74;57.43;101364.78;5271786;28;20046;-68
2022/09/23 11:37:01;;;;;;;8.07;3.90;;;;;;;16.77;57.37;101360.53;5273480;28;20024;-68
2022/09/23 11:40:11;;;;;;;7.53;4.40;;;;;;;16.78;57.45;101357.44;5276166;28;20036;-68
2022/09/23 11:42:52;;;;;;;10.15;4.38;;;;;;;16.85;58.14;101355.03;5272778;28;20052;-68
2022/09/23 11:45:31;;;;;;;7.97;4.47;;;;;;;16.88;58.56;101354.38;5275349;28;20040;-68
2022/09/23 11:48:21;;;;;;;5.05;3.72;;;;;;;16.91;56.99;101342.53;5275959;28;20371;-68
2022/09/23 11:51:01;;;;;;;6.68;4.20;;;;;;;16.90;57.06;101345.66;5266119;28;20029;-69
2022/09/23 11:53:46;;;;;;;7.47;3.80;;;;;;;16.95;57.61;101346.34;5282380;28;20074;-69
2022/09/23 11:56:27;;;;;;;6.93;4.05;;;;;;;17.07;56.74;101340.13;5282558;28;20035;-68
2022/09/23 11:59:02;;;;;;;6.32;3.60;;;;;;;17.09;56.57;101337.84;5282230;28;20066;-68
2022/09/23 12:01:41;;;;;;;6.22;4.15;;;;;;;17.25;57.58;101340.22;5282400;28;20062;-68
2022/09/23 12:04:18;;;;;;;6.50;4.50;;;;;;;17.27;55.93;101343.53;5281744;28;20028;-69
2022/09/23 12:07:13;;;;;;;6.72;3.47;;;;;;;17.27;55.17;101337.94;5282565;28;20094;-68
2022/09/23 12:10:17;;;;;;;7.30;3.60;;;;;;;17.23;55.34;101334.13;5282490;28;20399;-69
2022/09/23 12:13:01;;;;;;;7.35;3.42;;;;;;;17.19;55.00;101342.34;5221251;28;20061;-68
2022/09/23 12:15:51;;;;;;;5.88;3.22;;;;;;;17.17;55.43;101333.44;5230651;28;20041;-70
2022/09/23 12:18:37;;;;;;;6.65;3.58;;;;;;;17.13;55.11;101336.06;5270189;28;20056;-69
2022/09/23 12:21:27;;;;;;;;;;;;;;;17.20;55.31;101332.78;5282794;28;20025;-69
2022/09/23 12:24:16;;;;;;;4.40;3.20;;;;;;;17.16;55.37;101337.41;5282714;28;19959;-69
2022/09/23 12:26:55;;;;;;;7.05;2.95;;;;;;;17.10;55.50;101327.47;5272265;28;20029;-70
2022/09/23 12:29:30;;;;;;;6.13;3.65;;;;;;;17.06;55.60;101332.06;5270867;28;20096;-69
2022/09/23 12:32:08;;;;;;;5.40;3.20;;;;;;;17.11;55.33;101329.94;5282312;28;20051;-69
2022/09/23 12:34:47;;;;;;;4.18;3.20;;;;;;;17.12;55.76;101330.78;5282239;28;20044;-69
2022/09/23 12:37:34;;;;;;;5.43;3.53;;;;;;;17.14;56.00;101331.28;5282451;28;20055;-69
2022/09/23 12:40:20;;;;;;;4.28;3.33;;;;;;;17.21;56.75;101326.03;5281576;28;20116;-68
2022/09/23 12:42:52;;;;;;;7.18;4.18;;;;;;;17.24;56.84;101328.19;5282207;28;20025;-68
2022/09/23 12:45:32;;;;;;;5.22;3.40;;;;;;;17.25;56.52;101324.22;5282446;28;20024;-68
2022/09/23 12:48:25;;;;;;;6.90;3.30;;;;;;;17.25;57.02;101323.41;5284346;28;20158;-68
2022/09/23 12:51:14;;;;;;;5.78;3.53;;;;;;;17.23;56.82;101318.16;5265959;28;20372;-67
2022/09/23 12:53:54;;;;;;;5.63;3.97;;;;;;;17.24;56.75;101318.97;5264584;28;20499;-68
2022/09/23 12:56:52;;;;;;;6.65;5.50;;;;;;;17.26;56.77;101313.88;5279471;28;20028;-70
2022/09/23 12:59:27;;;;;;;10.38;4.65;;;;;;;17.21;56.77;101316.81;5279799;28;20041;-69
2022/09/23 13:02:21;;;;;;;5.57;3.92;;;;;;;17.29;57.23;101319.66;5284688;28;20029;-68
2022/09/23 13:08:01;;;;;;;5.55;4.90;;;;;;;17.33;57.44;101323.47;5285284;28;20028;-69
2022/09/23 13:10:41;;;;;;;7.50;4.38;;;;;;;17.31;57.65;101316.53;5285758;28;20131;-70
2022/09/23 13:13:25;;;;;;;5.70;4.07;;;;;;;17.35;57.87;101311.91;5284174;28;20433;-68
2022/09/23 13:16:39;;;;;;;5.85;4.53;;;;;;;17.29;57.97;101314.03;5284293;28;20051;-68
2022/09/23 13:19:25;;;;;;;6.25;4.40;;;;;;;17.31;58.38;101313.72;5241103;28;20033;-68
2022/09/23 13:22:02;;;;;;;10.27;6.13;;;;;;;17.29;57.50;101308.44;5283464;28;20036;-67
2022/09/23 13:24:40;;;;;;;6.32;4.95;;;;;;;17.34;57.56;101299.06;5285119;28;20482;-68
2022/09/23 13:27:19;;;;;;;6.78;5.30;;;;;;;17.35;57.11;101306.31;5284716;28;20020;-67
2022/09/23 13:30:04;;;;;;;8.13;5.60;;;;;;;17.42;57.55;101303.03;5273286;28;20033;-68
2022/09/23 13:32:43;;;;;;;8.77;5.88;;;;;;;17.42;57.66;101300.25;5284826;28;20075;-67
2022/09/23 13:35:25;;;;;;;7.13;4.75;;;;;;;17.38;57.62;101300.03;5285365;28;20086;-68
2022/09/23 13:38:07;;;;;;;8.90;5.15;;;;;;;17.35;57.92;101295.91;5285109;28;20021;-67
2022/09/23 13:40:40;;;;;;;8.65;4.72;;;;;;;17.30;58.58;101301.66;5263968;28;20056;-67
2022/09/23 13:43:24;;;;;;;19.30;16.58;;;;;;;17.39;58.75;101290.50;5262823;28;20052;-67
2022/09/23 13:45:55;;;;;;;7.47;6.15;;;;;;;17.31;57.93;101292.13;5273994;28;20025;-67
2022/09/23 13:48:27;;;;;;;6.47;4.82;;;;;;;17.27;58.92;101293.09;5284245;28;20055;-66
2022/09/23 13:51:08;;;;;;;6.70;3.80;;;;;;;17.29;59.25;101291.63;5283733;28;20043;-66
2022/09/23 13:53:40;;;;;;;7.55;4.00;;;;;;;17.32;59.14;101290.13;5284639;28;20139;-68
2022/09/23 13:56:14;;;;;;;9.18;5.07;;;;;;;17.29;59.88;101294.41;5284281;28;20029;-67
2022/09/23 13:58:45;;;;;;;9.05;4.85;;;;;;;17.25;59.96;101284.16;5283451;28;20021;-67
2022/09/23 14:01:35;;;;;;;9.15;6.70;;;;;;;17.27;60.65;101279.06;5284421;28;20040;-67
2022/09/23 14:04:23;;;;;;;14.35;11.82;;;;;;;17.26;60.60;101281.06;5283182;28;20020;-67
2022/09/23 14:06:55;;;;;;;8.73;5.57;;;;;;;17.33;60.99;101278.63;5282621;28;20026;-66
2022/09/23 14:09:27;;;;;;;7.05;4.93;;;;;;;17.23;61.28;101272.44;5286478;28;20108;-68
2022/09/23 14:12:00;;;;;;;8.60;5.05;;;;;;;17.22;61.52;101280.03;5289157;28;20043;-67
2022/09/23 14:14:35;;;;;;;8.27;5.70;;;;;;;17.21;62.06;101267.19;5283735;28;20078;-68
2022/09/23 14:17:09;;;;;;;6.95;4.70;;;;;;;17.26;62.11;101261.44;5284424;28;20028;-67
2022/09/23 14:19:41;;;;;;;8.00;5.07;;;;;;;17.24;62.50;101263.72;5298251;28;20046;-68
2022/09/23 14:22:24;;;;;;;8.18;5.43;;;;;;;17.27;62.69;101257.47;5284228;28;20021;-68
2022/09/23 14:24:56;;;;;;;8.32;5.43;;;;;;;17.25;62.67;101256.97;5283693;28;20103;-68
2022/09/23 14:27:32;;;;;;;11.15;5.68;;;;;;;17.29;62.86;101252.38;5283886;28;20107;-67
2022/09/23 14:30:04;;;;;;;8.18;5.88;;;;;;;17.23;62.90;101250.03;5283520;28;20028;-67
2022/09/23 14:32:41;;;;;;;8.90;5.65;;;;;;;17.22;63.38;101251.19;5283042;28;20024;-68
2022/09/23 14:35:20;;;;;;;7.07;6.03;;;;;;;17.20;63.52;101259.91;5283757;28;20361;-69
2022/09/23 14:41:14;;;;;;;9.93;6.00;;;;;;;17.24;64.28;101251.69;5282746;28;20399;-70
2022/09/23 14:43:51;;;;;;;10.63;6.18;;;;;;;17.25;64.38;101251.34;5283000;28;20024;-69
2022/09/23 14:46:26;;;;;;;9.32;5.75;;;;;;;17.20;64.46;101243.09;5283131;28;20025;-69
2022/09/23 14:49:02;;;;;;;7.00;5.40;;;;;;;17.13;64.68;101249.19;5272406;28;20021;-68
2022/09/23 14:51:43;;;;;;;10.55;6.13;;;;;;;17.11;64.19;101242.25;5283937;28;20020;-69
2022/09/23 14:54:49;;;;;;;8.60;6.72;;;;;;;17.14;64.59;101250.00;5282352;28;20081;-69
2022/09/23 14:57:20;;;;;;;;;;;;;;;17.21;64.44;101244.78;5225598;28;20031;-69
2022/09/23 15:00:07;;;;;;;7.53;5.50;;;;;;;17.14;65.24;101250.00;5268852;28;19917;-69
2022/09/23 15:02:43;;;;;;;7.43;5.82;;;;;;;17.10;65.54;101243.41;5282773;28;20028;-68
2022/09/23 15:05:22;;;;;;;8.75;6.22;;;;;;;17.12;65.57;101236.31;5282810;28;20045;-69
2022/09/23 15:07:58;;;;;;;9.48;6.78;;;;;;;17.10;66.42;101221.81;5282237;28;20349;-68
2022/09/23 15:10:36;;;;;;;10.80;6.82;;;;;;;17.12;66.81;101222.31;5282935;28;20025;-69
2022/09/23 15:13:15;;;;;;;10.45;5.85;;;;;;;17.07;67.10;101216.03;5282252;28;20056;-68
2022/09/23 15:15:47;;;;;;;10.38;8.30;;;;;;;17.10;67.66;101221.81;5282037;28;20514;-69
2022/09/23 15:18:24;;;;;;;17.80;13.63;;;;;;;17.10;69.24;101215.38;5278737;28;20056;-68
2022/09/23 15:21:01;;;;;;;24.42;21.55;;;;;;;17.09;68.97;101214.56;5266794;28;20048;-67
2022/09/23 15:23:44;;;;;;;9.43;7.60;;;;;;;17.05;70.28;101227.59;5283028;28;20047;-67
2022/09/23 15:26:25;;;;;;;9.02;7.15;;;;;;;17.06;69.72;101225.59;5282215;28;20112;-67
2022/09/23 15:28:57;;;;;;;8.02;6.53;;;;;;;17.09;69.84;101216.53;5281093;28;20028;-68
2022/09/23 15:31:29;;;;;;;10.43;6.72;;;;;;;17.08;70.37;101223.31;5267551;28;20371;-68
2022/09/23 15:34:00;;;;;;;9.13;6.88;;;;;;;16.99;69.43;101231.66;5262073;28;20087;-68
2022/09/23 15:36:32;;;;;;;9.45;6.93;;;;;;;17.05;69.58;101233.19;5261778;28;20032;-70
2022/09/23 15:39:07;;;;;;;10.93;7.93;;;;;;;16.99;70.11;101234.47;5262274;28;20025;-70
2022/09/23 15:41:38;;;;;;;;;;;;;;;17.08;69.37;101218.53;5281554;28;20036;-69
2022/09/23 15:44:15;;;;;;;10.68;6.57;;;;;;;17.08;69.97;101218.53;5281754;28;19935;-69
2022/09/23 15:46:50;;;;;;;8.48;7.05;;;;;;;17.02;70.69;101231.00;5282407;28;20028;-69
2022/09/23 15:49:30;;;;;;;9.45;5.95;;;;;;;17.10;70.25;101220.97;5267068;28;20043;-70
2022/09/23 15:52:04;;;;;;;13.30;8.10;;;;;;;17.00;70.87;101218.47;5281085;28;20020;-70
2022/09/23 15:54:36;;;;;;;10.82;7.70;;;;;;;16.98;69.95;101226.41;5282473;28;20021;-69
2022/09/23 15:57:08;;;;;;;10.98;7.20;;;;;;;17.08;70.03;101217.69;5281882;28;20107;-69
2022/09/23 15:59:39;;;;;;;12.85;7.15;;;;;;;17.14;70.14;101216.38;5281702;28;20609;-68
2022/09/23 16:02:21;;;;;;;11.82;8.65;;;;;;;17.04;70.15;101214.69;5282284;28;20499;-68
2022/09/23 16:04:52;;;;;;;12.70;8.38;;;;;;;17.05;70.22;101218.31;5281195;28;20097;-68
2022/09/23 16:07:35;;;;;;;13.43;8.65;;;;;;;17.04;70.07;101213.88;5282941;28;20016;-68
2022/09/23 16:10:07;;;;;;;17.08;12.30;;;;;;;17.09;69.88;101213.72;5280280;28;20479;-68
2022/09/23 16:12:38;;;;;;;18.70;11.95;;;;;;;17.04;69.96;101213.88;5276392;28;20072;-69
2022/09/23 16:15:15;;;;;;;26.25;10.13;;;;;;;17.00;70.12;101210.91;5261412;28;20017;-71
2022/09/23 16:17:46;;;;;;;13.93;8.75;;;;;;;17.00;70.01;101204.47;5268004;28;20020;-68
2022/09/23 16:20:18;;;;;;;16.25;9.27;;;;;;;17.03;70.27;101203.84;5288448;28;20048;-68
2022/09/23 16:23:01;;;;;;;14.25;9.32;;;;;;;16.99;70.01;101202.81;5285365;28;20467;-68
2022/09/23 16:25:36;;;;;;;16.95;9.00;;;;;;;17.02;70.00;101202.16;5273982;28;20361;-68
2022/09/23 16:28:08;;;;;;;11.18;8.20;;;;;;;16.97;70.07;101200.34;5269270;28;20125;-68
2022/09/23 16:30:39;;;;;;;14.07;9.27;;;;;;;16.96;70.83;101193.09;5284455;28;20024;-68
2022/09/23 16:33:11;;;;;;;12.98;8.98;;;;;;;16.95;70.69;101192.28;5285001;28;20024;-68
2022/09/23 16:35:42;;;;;;;12.50;8.32;;;;;;;16.97;70.58;101189.13;5286357;28;20464;-70
2022/09/23 16:38:13;;;;;;;12.80;7.90;;;;;;;16.97;70.87;101193.91;5285658;28;20111;-70
2022/09/23 16:40:45;;;;;;;13.57;8.48;;;;;;;16.98;71.13;101189.97;5285046;28;20040;-68
2022/09/23 16:43:16;;;;;;;13.48;9.27;;;;;;;16.93;71.34;101191.75;5286238;28;20021;-68
2022/09/23 16:45:47;;;;;;;12.38;7.63;;;;;;;16.91;71.36;101194.06;5284858;28;20035;-68
2022/09/23 16:48:20;;;;;;;14.73;8.15;;;;;;;16.93;71.55;101186.16;5271205;28;20067;-68
2022/09/23 16:50:52;;;;;;;14.57;8.20;;;;;;;16.85;72.09;101191.75;5266553;28;20021;-68
2022/09/23 16:53:28;;;;;;;15.85;9.73;;;;;;;16.82;72.50;101190.41;5269661;28;20025;-70
2022/09/23 16:56:08;;;;;;;10.23;7.13;;;;;;;16.89;72.20;101192.72;5283806;28;20090;-69
2022/09/23 16:58:39;;;;;;;14.00;8.95;;;;;;;16.84;72.91;101196.50;5285224;28;20020;-68
2022/09/23 17:04:15;;;;;;;9.32;6.70;;;;;;;16.85;73.44;101192.56;5285514;28;20044;-69
2022/09/23 17:06:49;;;;;;;9.65;6.97;;;;;;;16.81;73.69;101197.16;5284749;28;20020;-69
2022/09/23 17:09:26;;;;;;;8.93;6.18;;;;;;;16.79;73.98;101196.63;5284921;28;20024;-69
2022/09/23 17:12:12;;;;;;;8.30;5.88;;;;;;;16.78;74.14;101200.59;5284579;28;20035;-69
2022/09/23 17:14:43;;;;;;;11.57;6.53;;;;;;;16.74;74.42;101203.22;5284046;28;20024;-68
2022/09/23 17:17:15;;;;;;;8.25;6.28;;;;;;;16.74;74.56;101202.34;5285257;28;20020;-68
2022/09/23 17:19:46;;;;;;;10.40;6.30;;;;;;;16.76;74.13;101193.66;5285310;28;20107;-68
2022/09/23 17:22:17;;;;;;;9.70;6.55;;;;;;;16.73;74.57;101195.94;5283797;28;20020;-69
2022/09/23 17:24:50;;;;;;;12.48;6.57;;;;;;;16.88;74.13;101191.09;5285189;28;20028;-68
2022/09/23 17:27:23;;;;;;;10.05;6.95;;;;;;;16.80;74.89;101194.69;5285284;28;20024;-69
2022/09/23 17:29:57;;;;;;;13.50;9.63;;;;;;;16.73;75.39;101192.31;5284005;28;20033;-68
2022/09/23 17:32:28;;;;;;;11.18;8.43;;;;;;;16.69;75.23;101194.09;5284641;28;20373;-69
